sensor_id;sensor_type;location;lat;lon;timestamp;pressure;altitude;pressure_sealevel;temperature;humidity
30021;BME280;16861;52.294;7.760;2023-04-27T00:01:09;100235.03;;;7.55;57.55
30021;BME280;16861;52.294;7.760;2023-04-27T00:03:37;100244.63;;;7.55;57.97
30021;BME280;16861;52.294;7.760;2023-04-27T00:06:04;100239.47;;;7.53;58.03
30021;BME280;16861;52.294;7.760;2023-04-27T00:08:30;100234.28;;;7.52;58.05
30021;BME280;16861;52.294;7.760;2023-04-27T00:10:57;100232.59;;;7.51;57.83
30021;BME280;16861;52.294;7.760;2023-04-27T00:13:24;100233.44;;;7.51;57.57
30021;BME280;16861;52.294;7.760;2023-04-27T00:15:50;100236.09;;;7.50;57.96
30021;BME280;16861;52.294;7.760;2023-04-27T00:18:17;100230.06;;;7.48;57.73
30021;BME280;16861;52.294;7.760;2023-04-27T00:20:44;100237.06;;;7.47;57.62
30021;BME280;16861;52.294;7.760;2023-04-27T00:23:10;100224.03;;;7.46;57.74
30021;BME280;16861;52.294;7.760;2023-04-27T00:25:37;100233.72;;;7.43;57.88
30021;BME280;16861;52.294;7.760;2023-04-27T00:28:04;100226.84;;;7.41;57.69
30021;BME280;16861;52.294;7.760;2023-04-27T00:30:30;100228.63;;;7.39;58.01
30021;BME280;16861;52.294;7.760;2023-04-27T00:32:57;100236.53;;;7.37;57.78
30021;BME280;16861;52.294;7.760;2023-04-27T00:35:23;100235.75;;;7.35;57.82
30021;BME280;16861;52.294;7.760;2023-04-27T00:37:52;100235.84;;;7.32;57.73
30021;BME280;16861;52.294;7.760;2023-04-27T00:40:22;100236.81;;;7.29;57.62
30021;BME280;16861;52.294;7.760;2023-04-27T00:42:48;100235.13;;;7.28;58.03
30021;BME280;16861;52.294;7.760;2023-04-27T00:45:15;100233.38;;;7.29;57.50
30021;BME280;16861;52.294;7.760;2023-04-27T00:47:43;100236.19;;;7.23;57.65
30021;BME280;16861;52.294;7.760;2023-04-27T00:50:10;100243.19;;;7.22;57.92
30021;BME280;16861;52.294;7.760;2023-04-27T00:52:38;100245.94;;;7.19;57.85
30021;BME280;16861;52.294;7.760;2023-04-27T00:55:05;100249.47;;;7.18;57.86
30021;BME280;16861;52.294;7.760;2023-04-27T00:57:32;100251.31;;;7.14;57.46
30021;BME280;16861;52.294;7.760;2023-04-27T00:59:59;100253.13;;;7.12;58.09
30021;BME280;16861;52.294;7.760;2023-04-27T01:02:28;100251.53;;;7.08;57.69
30021;BME280;16861;52.294;7.760;2023-04-27T01:04:55;100258.56;;;7.06;57.60
30021;BME280;16861;52.294;7.760;2023-04-27T01:07:25;100253.50;;;7.01;57.84
30021;BME280;16861;52.294;7.760;2023-04-27T01:09:52;100258.78;;;7.00;57.59
30021;BME280;16861;52.294;7.760;2023-04-27T01:12:19;100255.34;;;6.98;58.03
30021;BME280;16861;52.294;7.760;2023-04-27T01:14:45;100252.88;;;6.95;57.91
30021;BME280;16861;52.294;7.760;2023-04-27T01:17:12;100252.91;;;6.93;57.90
30021;BME280;16861;52.294;7.760;2023-04-27T01:19:39;100259.94;;;6.91;58.02
30021;BME280;16861;52.294;7.760;2023-04-27T01:22:06;100258.25;;;6.90;58.04
30021;BME280;16861;52.294;7.760;2023-04-27T01:24:33;100264.44;;;6.87;57.91
30021;BME280;16861;52.294;7.760;2023-04-27T01:26:59;100257.50;;;6.86;58.42
30021;BME280;16861;52.294;7.760;2023-04-27T01:29:27;100261.88;;;6.86;58.16
30021;BME280;16861;52.294;7.760;2023-04-27T01:31:53;100257.63;;;6.82;58.00
30021;BME280;16861;52.294;7.760;2023-04-27T01:34:20;100262.88;;;6.82;58.34
30021;BME280;16861;52.294;7.760;2023-04-27T01:36:47;100267.28;;;6.81;58.21
30021;BME280;16861;52.294;7.760;2023-04-27T01:39:13;100255.94;;;6.81;58.28
30021;BME280;16861;52.294;7.760;2023-04-27T01:41:40;100262.91;;;6.80;58.42
30021;BME280;16861;52.294;7.760;2023-04-27T01:44:07;100269.06;;;6.79;58.00
30021;BME280;16861;52.294;7.760;2023-04-27T01:46:33;100260.34;;;6.78;58.16
30021;BME280;16861;52.294;7.760;2023-04-27T01:49:00;100257.81;;;6.77;58.43
30021;BME280;16861;52.294;7.760;2023-04-27T01:51:27;100261.31;;;6.76;58.25
30021;BME280;16861;52.294;7.760;2023-04-27T01:53:54;100258.78;;;6.74;58.41
30021;BME280;16861;52.294;7.760;2023-04-27T01:56:20;100264.88;;;6.73;58.23
30021;BME280;16861;52.294;7.760;2023-04-27T01:58:47;100265.78;;;6.72;58.18
30021;BME280;16861;52.294;7.760;2023-04-27T02:01:13;100265.78;;;6.72;58.16
30021;BME280;16861;52.294;7.760;2023-04-27T02:03:40;100273.69;;;6.71;58.36
30021;BME280;16861;52.294;7.760;2023-04-27T02:06:07;100274.59;;;6.70;58.54
30021;BME280;16861;52.294;7.760;2023-04-27T02:08:34;100275.50;;;6.69;58.23
30021;BME280;16861;52.294;7.760;2023-04-27T02:11:00;100269.41;;;6.68;58.13
30021;BME280;16861;52.294;7.760;2023-04-27T02:13:27;100278.19;;;6.67;58.41
30021;BME280;16861;52.294;7.760;2023-04-27T02:15:53;100275.50;;;6.69;58.19
30021;BME280;16861;52.294;7.760;2023-04-27T02:18:21;100266.00;;;6.66;58.11
30021;BME280;16861;52.294;7.760;2023-04-27T02:20:48;100266.88;;;6.65;58.13
30021;BME280;16861;52.294;7.760;2023-04-27T02:23:15;100273.91;;;6.64;58.47
30021;BME280;16861;52.294;7.760;2023-04-27T02:25:41;100284.38;;;6.64;58.25
30021;BME280;16861;52.294;7.760;2023-04-27T02:28:12;100284.41;;;6.63;58.16
30021;BME280;16861;52.294;7.760;2023-04-27T02:30:42;100284.41;;;6.63;58.45
30021;BME280;16861;52.294;7.760;2023-04-27T02:33:08;100283.53;;;6.62;58.35
30021;BME280;16861;52.294;7.760;2023-04-27T02:35:35;100286.22;;;6.61;58.47
30021;BME280;16861;52.294;7.760;2023-04-27T02:38:01;100283.59;;;6.61;58.33
30021;BME280;16861;52.294;7.760;2023-04-27T02:40:28;100281.88;;;6.60;58.59
30021;BME280;16861;52.294;7.760;2023-04-27T02:42:54;100282.78;;;6.59;58.04
30021;BME280;16861;52.294;7.760;2023-04-27T02:45:21;100280.19;;;6.59;58.56
30021;BME280;16861;52.294;7.760;2023-04-27T02:47:48;100276.75;;;6.57;58.30
30021;BME280;16861;52.294;7.760;2023-04-27T02:50:16;100292.44;;;6.57;58.23
30021;BME280;16861;52.294;7.760;2023-04-27T02:52:42;100280.28;;;6.56;58.26
30021;BME280;16861;52.294;7.760;2023-04-27T02:55:09;100272.47;;;6.54;58.28
30021;BME280;16861;52.294;7.760;2023-04-27T02:57:36;100276.00;;;6.53;58.46
30021;BME280;16861;52.294;7.760;2023-04-27T03:00:03;100269.09;;;6.50;58.25
30021;BME280;16861;52.294;7.760;2023-04-27T03:02:32;100271.72;;;6.50;58.33
30021;BME280;16861;52.294;7.760;2023-04-27T03:04:58;100274.38;;;6.49;58.58
30021;BME280;16861;52.294;7.760;2023-04-27T03:07:25;100268.31;;;6.48;58.69
30021;BME280;16861;52.294;7.760;2023-04-27T03:09:52;100260.50;;;6.47;58.50
30021;BME280;16861;52.294;7.760;2023-04-27T03:12:18;100265.75;;;6.47;58.47
30021;BME280;16861;52.294;7.760;2023-04-27T03:14:45;100255.38;;;6.44;58.66
30021;BME280;16861;52.294;7.760;2023-04-27T03:17:11;100257.94;;;6.45;58.32
30021;BME280;16861;52.294;7.760;2023-04-27T03:19:38;100260.59;;;6.44;58.64
30021;BME280;16861;52.294;7.760;2023-04-27T03:22:04;100253.66;;;6.43;58.35
30021;BME280;16861;52.294;7.760;2023-04-27T03:24:31;100258.03;;;6.42;58.48
30021;BME280;16861;52.294;7.760;2023-04-27T03:26:58;100259.81;;;6.42;58.64
30021;BME280;16861;52.294;7.760;2023-04-27T03:29:24;100261.59;;;6.39;58.40
30021;BME280;16861;52.294;7.760;2023-04-27T03:31:51;100255.56;;;6.37;58.24
30021;BME280;16861;52.294;7.760;2023-04-27T03:34:18;100266.88;;;6.38;58.42
30021;BME280;16861;52.294;7.760;2023-04-27T03:36:46;100259.13;;;6.35;58.33
30021;BME280;16861;52.294;7.760;2023-04-27T03:39:12;100261.81;;;6.33;58.36
30021;BME280;16861;52.294;7.760;2023-04-27T03:41:39;100254.00;;;6.32;58.41
30021;BME280;16861;52.294;7.760;2023-04-27T03:44:06;100261.91;;;6.30;58.56
30021;BME280;16861;52.294;7.760;2023-04-27T03:46:33;100253.19;;;6.30;58.48
30021;BME280;16861;52.294;7.760;2023-04-27T03:49:00;100261.94;;;6.29;58.57
30021;BME280;16861;52.294;7.760;2023-04-27T03:51:26;100256.75;;;6.27;58.44
30021;BME280;16861;52.294;7.760;2023-04-27T03:53:53;100252.44;;;6.26;58.45
30021;BME280;16861;52.294;7.760;2023-04-27T03:56:19;100256.84;;;6.24;nan
30021;BME280;16861;52.294;7.760;2023-04-27T03:58:46;100257.75;;;6.23;58.37
30021;BME280;16861;52.294;7.760;2023-04-27T04:01:13;100263.03;;;6.21;58.63
30021;BME280;16861;52.294;7.760;2023-04-27T04:03:40;100261.31;;;6.20;58.70
30021;BME280;16861;52.294;7.760;2023-04-27T04:06:07;100270.09;;;6.18;58.80
30021;BME280;16861;52.294;7.760;2023-04-27T04:08:33;100261.50;;;6.14;58.92
30021;BME280;16861;52.294;7.760;2023-04-27T04:11:00;100267.69;;;6.11;58.86
30021;BME280;16861;52.294;7.760;2023-04-27T04:13:26;100271.19;;;6.10;59.06
30021;BME280;16861;52.294;7.760;2023-04-27T04:16:13;100276.59;;;6.04;58.96
30021;BME280;16861;52.294;7.760;2023-04-27T04:18:40;100271.31;;;6.07;59.10
30021;BME280;16861;52.294;7.760;2023-04-27T04:21:08;100274.78;;;6.06;58.98
30021;BME280;16861;52.294;7.760;2023-04-27T04:23:36;100281.78;;;6.06;59.17
30021;BME280;16861;52.294;7.760;2023-04-27T04:26:03;100283.53;;;6.05;59.01
30021;BME280;16861;52.294;7.760;2023-04-27T04:28:30;100286.16;;;6.05;58.97
30021;BME280;16861;52.294;7.760;2023-04-27T04:30:56;100284.41;;;6.06;59.25
30021;BME280;16861;52.294;7.760;2023-04-27T04:33:24;100287.03;;;6.06;59.09
30021;BME280;16861;52.294;7.760;2023-04-27T04:35:51;100287.84;;;6.06;59.39
30021;BME280;16861;52.294;7.760;2023-04-27T04:38:19;100294.81;;;6.07;59.04
30021;BME280;16861;52.294;7.760;2023-04-27T04:40:46;100293.97;;;6.07;59.38
30021;BME280;16861;52.294;7.760;2023-04-27T04:43:13;100298.22;;;6.09;59.40
30021;BME280;16861;52.294;7.760;2023-04-27T04:45:39;100301.66;;;6.11;59.49
30021;BME280;16861;52.294;7.760;2023-04-27T04:48:07;100312.00;;;6.15;59.53
30021;BME280;16861;52.294;7.760;2023-04-27T04:50:34;100306.78;;;6.15;59.60
30021;BME280;16861;52.294;7.760;2023-04-27T04:53:01;100305.78;;;6.19;59.44
30021;BME280;16861;52.294;7.760;2023-04-27T04:55:27;100308.38;;;6.20;59.57
30021;BME280;16861;52.294;7.760;2023-04-27T04:57:54;100310.03;;;6.23;59.57
30021;BME280;16861;52.294;7.760;2023-04-27T05:00:20;100311.72;;;6.24;59.48
30021;BME280;16861;52.294;7.760;2023-04-27T05:02:47;100315.22;;;6.24;59.63
30021;BME280;16861;52.294;7.760;2023-04-27T05:05:14;100317.78;;;6.26;59.58
30021;BME280;16861;52.294;7.760;2023-04-27T05:07:41;100308.13;;;6.28;59.93
30021;BME280;16861;52.294;7.760;2023-04-27T05:10:08;100308.09;;;6.30;59.79
30021;BME280;16861;52.294;7.760;2023-04-27T05:12:34;100307.13;;;6.32;59.79
30021;BME280;16861;52.294;7.760;2023-04-27T05:15:01;100301.03;;;6.33;59.79
30021;BME280;16861;52.294;7.760;2023-04-27T05:17:28;100299.19;;;6.35;60.03
30021;BME280;16861;52.294;7.760;2023-04-27T05:19:54;100312.25;;;6.37;59.81
30021;BME280;16861;52.294;7.760;2023-04-27T05:22:21;100316.50;;;6.39;60.24
30021;BME280;16861;52.294;7.760;2023-04-27T05:24:47;100325.19;;;6.42;60.37
30021;BME280;16861;52.294;7.760;2023-04-27T05:27:14;100321.53;;;6.46;60.47
30021;BME280;16861;52.294;7.760;2023-04-27T05:29:40;100318.00;;;6.48;60.47
30021;BME280;16861;52.294;7.760;2023-04-27T05:32:07;100324.00;;;6.52;60.43
30021;BME280;16861;52.294;7.760;2023-04-27T05:34:35;100323.00;;;6.56;60.33
30021;BME280;16861;52.294;7.760;2023-04-27T05:37:02;100324.59;;;6.60;60.42
30021;BME280;16861;52.294;7.760;2023-04-27T05:39:28;100326.22;;;6.64;60.72
30021;BME280;16861;52.294;7.760;2023-04-27T05:41:55;100333.06;;;6.69;60.58
30021;BME280;16861;52.294;7.760;2023-04-27T05:44:22;100334.72;;;6.71;60.51
30021;BME280;16861;52.294;7.760;2023-04-27T05:46:54;100333.69;;;6.77;60.56
30021;BME280;16861;52.294;7.760;2023-04-27T05:49:22;100329.25;;;6.79;60.51
30021;BME280;16861;52.294;7.760;2023-04-27T05:51:48;100333.47;;;6.83;60.30
30021;BME280;16861;52.294;7.760;2023-04-27T05:54:15;100334.31;;;6.85;60.33
30021;BME280;16861;52.294;7.760;2023-04-27T05:56:42;100333.34;;;6.88;60.87
30021;BME280;16861;52.294;7.760;2023-04-27T05:59:08;100334.09;;;6.91;60.86
30021;BME280;16861;52.294;7.760;2023-04-27T06:01:35;100334.84;;;6.95;60.93
30021;BME280;16861;52.294;7.760;2023-04-27T06:04:02;100335.53;;;7.00;60.98
30021;BME280;16861;52.294;7.760;2023-04-27T06:06:33;100338.88;;;7.06;60.90
30021;BME280;16861;52.294;7.760;2023-04-27T06:09:00;100343.84;;;7.13;61.09
30021;BME280;16861;52.294;7.760;2023-04-27T06:11:27;100344.56;;;7.19;61.22
30021;BME280;16861;52.294;7.760;2023-04-27T06:13:54;100338.31;;;7.23;61.28
30021;BME280;16861;52.294;7.760;2023-04-27T06:16:22;100339.88;;;7.28;60.76
30021;BME280;16861;52.294;7.760;2023-04-27T06:18:49;100349.28;;;7.34;61.28
30021;BME280;16861;52.294;7.760;2023-04-27T06:21:16;100355.22;;;7.39;60.98
30021;BME280;16861;52.294;7.760;2023-04-27T06:23:43;100349.81;;;7.44;60.99
30021;BME280;16861;52.294;7.760;2023-04-27T06:26:09;100347.94;;;7.48;60.87
30021;BME280;16861;52.294;7.760;2023-04-27T06:28:36;100355.63;;;7.52;60.80
30021;BME280;16861;52.294;7.760;2023-04-27T06:31:04;100358.09;;;7.57;60.84
30021;BME280;16861;52.294;7.760;2023-04-27T06:33:31;100352.78;;;7.60;60.60
30021;BME280;16861;52.294;7.760;2023-04-27T06:35:59;100357.03;;;7.63;60.56
30021;BME280;16861;52.294;7.760;2023-04-27T06:38:26;100355.16;;;7.66;60.76
30021;BME280;16861;52.294;7.760;2023-04-27T06:40:53;100355.91;;;7.70;60.61
30021;BME280;16861;52.294;7.760;2023-04-27T06:43:20;100354.88;;;7.74;60.84
30021;BME280;16861;52.294;7.760;2023-04-27T06:45:47;100359.06;;;7.80;60.45
30021;BME280;16861;52.294;7.760;2023-04-27T06:48:14;100358.03;;;7.84;60.76
30021;BME280;16861;52.294;7.760;2023-04-27T06:50:40;100362.25;;;7.88;60.41
30021;BME280;16861;52.294;7.760;2023-04-27T06:53:07;100362.06;;;7.94;60.32
30021;BME280;16861;52.294;7.760;2023-04-27T06:55:34;100354.88;;;8.00;59.88
30021;BME280;16861;52.294;7.760;2023-04-27T06:58:01;100351.19;;;8.05;60.23
30021;BME280;16861;52.294;7.760;2023-04-27T07:00:29;100349.19;;;8.12;60.54
30021;BME280;16861;52.294;7.760;2023-04-27T07:02:57;100355.88;;;8.19;60.07
30021;BME280;16861;52.294;7.760;2023-04-27T07:05:24;100359.13;;;8.26;59.98
30021;BME280;16861;52.294;7.760;2023-04-27T07:07:51;100355.38;;;8.33;59.60
30021;BME280;16861;52.294;7.760;2023-04-27T07:10:18;100351.63;;;8.41;59.45
30021;BME280;16861;52.294;7.760;2023-04-27T07:12:45;100350.44;;;8.48;59.28
30021;BME280;16861;52.294;7.760;2023-04-27T07:15:12;100353.66;;;8.56;59.38
30021;BME280;16861;52.294;7.760;2023-04-27T07:17:38;100355.13;;;8.64;59.16
30021;BME280;16861;52.294;7.760;2023-04-27T07:20:05;100357.50;;;8.70;58.86
30021;BME280;16861;52.294;7.760;2023-04-27T07:22:33;100357.22;;;8.78;58.86
30021;BME280;16861;52.294;7.760;2023-04-27T07:24:59;100353.41;;;8.85;58.45
30021;BME280;16861;52.294;7.760;2023-04-27T07:27:26;100354.88;;;8.92;58.03
30021;BME280;16861;52.294;7.760;2023-04-27T07:29:52;100355.59;;;8.96;57.94
30021;BME280;16861;52.294;7.760;2023-04-27T07:32:20;100357.94;;;9.04;57.52
30021;BME280;16861;52.294;7.760;2023-04-27T07:34:48;100358.59;;;9.09;57.54
30021;BME280;16861;52.294;7.760;2023-04-27T07:37:20;100348.75;;;9.14;57.31
30021;BME280;16861;52.294;7.760;2023-04-27T07:39:48;100343.22;;;9.20;56.82
30021;BME280;16861;52.294;7.760;2023-04-27T07:42:15;100343.97;;;9.24;56.67
30021;BME280;16861;52.294;7.760;2023-04-27T07:47:18;100342.66;;;9.34;56.67
30021;BME280;16861;52.294;7.760;2023-04-27T07:49:44;100345.09;;;9.39;56.89
30021;BME280;16861;52.294;7.760;2023-04-27T07:52:14;100343.13;;;9.44;56.75
30021;BME280;16861;52.294;7.760;2023-04-27T07:54:41;100338.53;;;9.49;56.89
30021;BME280;16861;52.294;7.760;2023-04-27T07:57:08;100342.59;;;9.57;56.95
30021;BME280;16861;52.294;7.760;2023-04-27T07:59:37;100337.94;;;9.63;56.79
30021;BME280;16861;52.294;7.760;2023-04-27T08:02:03;100347.19;;;9.72;56.55
30021;BME280;16861;52.294;7.760;2023-04-27T08:04:45;100341.59;;;9.80;56.36
30021;BME280;16861;52.294;7.760;2023-04-27T08:07:13;100343.94;;;9.86;56.14
30021;BME280;16861;52.294;7.760;2023-04-27T08:09:40;100335.75;;;9.93;56.03
30021;BME280;16861;52.294;7.760;2023-04-27T08:12:06;100340.84;;;9.97;55.21
30021;BME280;16861;52.294;7.760;2023-04-27T08:14:34;100337.06;;;10.03;54.83
30021;BME280;16861;52.294;7.760;2023-04-27T08:17:00;100342.97;;;10.08;55.07
30021;BME280;16861;52.294;7.760;2023-04-27T08:19:27;100338.28;;;10.15;55.10
30021;BME280;16861;52.294;7.760;2023-04-27T08:21:54;100344.13;;;10.22;55.29
30021;BME280;16861;52.294;7.760;2023-04-27T08:24:21;100341.13;;;10.29;55.37
30021;BME280;16861;52.294;7.760;2023-04-27T08:26:47;100339.06;;;10.36;54.95
30021;BME280;16861;52.294;7.760;2023-04-27T08:29:14;100348.34;;;10.45;54.67
30021;BME280;16861;52.294;7.760;2023-04-27T08:31:53;100344.34;;;10.55;54.53
30021;BME280;16861;52.294;7.760;2023-04-27T08:34:22;100341.44;;;10.62;54.61
30021;BME280;16861;52.294;7.760;2023-04-27T08:36:48;100349.81;;;10.70;55.05
30021;BME280;16861;52.294;7.760;2023-04-27T08:39:15;100344.94;;;10.80;55.44
30021;BME280;16861;52.294;7.760;2023-04-27T08:41:43;100347.91;;;10.91;55.19
30021;BME280;16861;52.294;7.760;2023-04-27T08:44:10;100351.66;;;11.05;55.56
30021;BME280;16861;52.294;7.760;2023-04-27T08:46:37;100353.59;;;11.19;55.05
30021;BME280;16861;52.294;7.760;2023-04-27T08:49:04;100353.00;;;11.31;54.98
30021;BME280;16861;52.294;7.760;2023-04-27T08:51:33;100348.81;;;11.45;54.66
30021;BME280;16861;52.294;7.760;2023-04-27T08:54:00;100346.44;;;11.56;54.31
30021;BME280;16861;52.294;7.760;2023-04-27T08:56:28;100349.38;;;11.68;54.23
30021;BME280;16861;52.294;7.760;2023-04-27T08:58:56;100351.47;;;11.79;54.17
30021;BME280;16861;52.294;7.760;2023-04-27T09:01:23;100358.81;;;11.90;53.99
30021;BME280;16861;52.294;7.760;2023-04-27T09:03:55;100346.94;;;11.98;52.72
30021;BME280;16861;52.294;7.760;2023-04-27T09:06:30;100345.59;;;12.07;52.45
30021;BME280;16861;52.294;7.760;2023-04-27T09:08:57;100339.66;;;12.20;53.66
30021;BME280;16861;52.294;7.760;2023-04-27T09:11:32;100344.59;;;12.26;51.66
30021;BME280;16861;52.294;7.760;2023-04-27T09:14:01;100345.88;;;12.35;52.73
30021;BME280;16861;52.294;7.760;2023-04-27T09:16:29;100343.09;;;12.38;52.64
30021;BME280;16861;52.294;7.760;2023-04-27T09:18:57;100350.06;;;12.39;51.54
30021;BME280;16861;52.294;7.760;2023-04-27T09:21:28;100343.31;;;12.33;50.23
30021;BME280;16861;52.294;7.760;2023-04-27T09:23:56;100339.00;;;12.32;52.50
30021;BME280;16861;52.294;7.760;2023-04-27T09:26:24;100341.78;;;12.29;51.69
30021;BME280;16861;52.294;7.760;2023-04-27T09:28:54;100340.09;;;12.28;51.71
30021;BME280;16861;52.294;7.760;2023-04-27T09:31:35;100332.03;;;12.31;51.20
30021;BME280;16861;52.294;7.760;2023-04-27T09:34:02;100332.09;;;12.46;53.01
30021;BME280;16861;52.294;7.760;2023-04-27T09:36:30;100336.69;;;12.58;53.39
30021;BME280;16861;52.294;7.760;2023-04-27T09:39:02;100332.41;;;12.72;50.98
30021;BME280;16861;52.294;7.760;2023-04-27T09:41:31;100328.78;;;12.89;51.60
30021;BME280;16861;52.294;7.760;2023-04-27T09:43:58;100320.94;;;13.03;51.46
30021;BME280;16861;52.294;7.760;2023-04-27T09:46:27;100323.78;;;13.15;50.06
30021;BME280;16861;52.294;7.760;2023-04-27T09:48:55;100328.53;;;13.24;49.92
30021;BME280;16861;52.294;7.760;2023-04-27T09:51:21;100322.97;;;13.29;49.71
30021;BME280;16861;52.294;7.760;2023-04-27T09:53:53;100316.75;;;13.30;48.88
30021;BME280;16861;52.294;7.760;2023-04-27T10:01:53;100325.84;;;13.40;49.13
30021;BME280;16861;52.294;7.760;2023-04-27T10:04:35;100323.19;;;13.40;48.23
30021;BME280;16861;52.294;7.760;2023-04-27T10:07:10;100317.81;;;13.42;48.31
30021;BME280;16861;52.294;7.760;2023-04-27T10:09:46;100322.25;;;13.41;47.49
30021;BME280;16861;52.294;7.760;2023-04-27T10:12:15;100319.53;;;13.43;48.54
30021;BME280;16861;52.294;7.760;2023-04-27T10:17:24;100321.31;;;13.42;47.54
30021;BME280;16861;52.294;7.760;2023-04-27T10:19:54;100313.97;;;13.48;48.80
30021;BME280;16861;52.294;7.760;2023-04-27T10:22:36;100317.63;;;13.45;47.38
30021;BME280;16861;52.294;7.760;2023-04-27T10:25:12;100314.84;;;13.48;47.55
30021;BME280;16861;52.294;7.760;2023-04-27T10:27:39;100315.47;;;13.52;48.40
30021;BME280;16861;52.294;7.760;2023-04-27T10:30:10;100317.38;;;13.50;46.67
30021;BME280;16861;52.294;7.760;2023-04-27T10:32:49;100313.19;;;13.46;46.13
30021;BME280;16861;52.294;7.760;2023-04-27T10:35:18;100318.22;;;13.50;48.51
30021;BME280;16861;52.294;7.760;2023-04-27T10:37:44;100316.16;;;13.55;49.07
30021;BME280;16861;52.294;7.760;2023-04-27T10:40:13;100317.56;;;13.61;48.67
30021;BME280;16861;52.294;7.760;2023-04-27T10:42:40;100313.53;;;13.70;48.38
30021;BME280;16861;52.294;7.760;2023-04-27T10:45:07;100309.44;;;13.79;47.71
30021;BME280;16861;52.294;7.760;2023-04-27T10:47:38;100305.47;;;13.86;48.27
30021;BME280;16861;52.294;7.760;2023-04-27T10:50:07;100302.06;;;13.99;48.88
30021;BME280;16861;52.294;7.760;2023-04-27T10:52:34;100298.72;;;14.24;50.68
30021;BME280;16861;52.294;7.760;2023-04-27T10:55:12;100288.69;;;14.57;47.89
30021;BME280;16861;52.294;7.760;2023-04-27T10:57:52;100282.59;;;15.10;48.44
30021;BME280;16861;52.294;7.760;2023-04-27T11:02:49;100280.44;;;16.44;52.44
30021;BME280;16861;52.294;7.760;2023-04-27T11:05:20;100272.16;;;17.20;51.02
30021;BME280;16861;52.294;7.760;2023-04-27T11:07:47;100268.44;;;18.03;50.96
30021;BME280;16861;52.294;7.760;2023-04-27T11:10:15;100259.34;;;18.82;49.48
30021;BME280;16861;52.294;7.760;2023-04-27T11:12:42;100258.97;;;19.61;48.73
30021;BME280;16861;52.294;7.760;2023-04-27T11:15:09;100260.91;;;20.31;47.51
30021;BME280;16861;52.294;7.760;2023-04-27T11:17:36;100258.50;;;20.97;46.39
30021;BME280;16861;52.294;7.760;2023-04-27T11:20:03;100258.63;;;21.53;44.48
30021;BME280;16861;52.294;7.760;2023-04-27T11:22:42;100261.25;;;22.01;41.34
30021;BME280;16861;52.294;7.760;2023-04-27T11:25:10;100258.88;;;22.44;42.29
30021;BME280;16861;52.294;7.760;2023-04-27T11:27:38;100251.47;;;22.74;40.91
30021;BME280;16861;52.294;7.760;2023-04-27T11:30:05;100245.44;;;22.99;40.77
30021;BME280;16861;52.294;7.760;2023-04-27T11:32:33;100250.41;;;23.20;39.43
30021;BME280;16861;52.294;7.760;2023-04-27T11:35:00;100245.50;;;23.34;39.14
30021;BME280;16861;52.294;7.760;2023-04-27T11:37:26;100248.91;;;23.44;38.21
30021;BME280;16861;52.294;7.760;2023-04-27T11:39:53;100245.59;;;23.50;37.55
30021;BME280;16861;52.294;7.760;2023-04-27T11:42:22;100250.28;;;23.56;38.97
30021;BME280;16861;52.294;7.760;2023-04-27T11:47:20;100253.44;;;23.87;38.71
30021;BME280;16861;52.294;7.760;2023-04-27T11:49:49;100248.19;;;24.12;38.30
30021;BME280;16861;52.294;7.760;2023-04-27T11:52:17;100248.25;;;24.45;38.48
30021;BME280;16861;52.294;7.760;2023-04-27T11:54:52;100245.69;;;24.77;36.73
30021;BME280;16861;52.294;7.760;2023-04-27T11:57:33;100235.25;;;25.15;36.33
30021;BME280;16861;52.294;7.760;2023-04-27T12:00:03;100241.88;;;25.53;35.66
30021;BME280;16861;52.294;7.760;2023-04-27T12:02:36;100241.69;;;25.71;35.31
30021;BME280;16861;52.294;7.760;2023-04-27T12:05:03;100244.00;;;25.74;34.42
30021;BME280;16861;52.294;7.760;2023-04-27T12:07:31;100247.41;;;25.68;33.50
30021;BME280;16861;52.294;7.760;2023-04-27T12:09:58;100243.09;;;25.58;33.79
30021;BME280;16861;52.294;7.760;2023-04-27T12:12:26;100248.66;;;25.57;34.70
30021;BME280;16861;52.294;7.760;2023-04-27T12:14:53;100241.56;;;25.56;34.56
30021;BME280;16861;52.294;7.760;2023-04-27T12:17:19;100241.75;;;25.46;34.18
30021;BME280;16861;52.294;7.760;2023-04-27T12:19:46;100245.13;;;25.31;33.44
30021;BME280;16861;52.294;7.760;2023-04-27T12:22:13;100249.75;;;25.14;32.87
30021;BME280;16861;52.294;7.760;2023-04-27T12:24:39;100239.34;;;24.94;33.69
30021;BME280;16861;52.294;7.760;2023-04-27T12:27:06;100240.50;;;24.83;33.96
30021;BME280;16861;52.294;7.760;2023-04-27T12:29:33;100237.47;;;24.78;34.05
30021;BME280;16861;52.294;7.760;2023-04-27T12:32:00;100246.22;;;24.80;34.97
30021;BME280;16861;52.294;7.760;2023-04-27T12:34:26;100235.81;;;24.85;35.36
30021;BME280;16861;52.294;7.760;2023-04-27T12:36:53;100236.31;;;24.89;33.67
30021;BME280;16861;52.294;7.760;2023-04-27T12:39:21;100239.31;;;24.78;32.51
30021;BME280;16861;52.294;7.760;2023-04-27T12:41:51;100233.09;;;24.52;32.48
30021;BME280;16861;52.294;7.760;2023-04-27T12:44:18;100229.34;;;24.12;32.08
30021;BME280;16861;52.294;7.760;2023-04-27T12:46:45;100225.84;;;23.68;31.80
30021;BME280;16861;52.294;7.760;2023-04-27T12:49:13;100225.78;;;23.25;32.11
30021;BME280;16861;52.294;7.760;2023-04-27T12:51:40;100220.66;;;22.87;32.55
30021;BME280;16861;52.294;7.760;2023-04-27T12:54:08;100230.38;;;22.61;33.22
30021;BME280;16861;52.294;7.760;2023-04-27T12:56:35;100225.22;;;22.50;34.08
30021;BME280;16861;52.294;7.760;2023-04-27T12:59:01;100225.75;;;22.54;35.21
30021;BME280;16861;52.294;7.760;2023-04-27T13:01:28;100222.53;;;22.68;34.91
30021;BME280;16861;52.294;7.760;2023-04-27T13:04:01;100224.56;;;22.93;33.70
30021;BME280;16861;52.294;7.760;2023-04-27T13:06:29;100236.69;;;23.23;35.47
30021;BME280;16861;52.294;7.760;2023-04-27T13:08:57;100235.31;;;23.46;34.84
30021;BME280;16861;52.294;7.760;2023-04-27T13:11:24;100235.50;;;23.52;33.23
30021;BME280;16861;52.294;7.760;2023-04-27T13:13:51;100234.47;;;23.45;32.88
30021;BME280;16861;52.294;7.760;2023-04-27T13:16:17;100224.63;;;23.27;32.32